sensor_id;sensor_type;location;lat;lon;timestamp;P1;durP1;ratioP1;P2;durP2;ratioP2
2023;SDS011;1016;48.770;9.154;2022-12-07T00:01:12;20.50;;;7.18;;
2023;SDS011;1016;48.770;9.154;2022-12-07T00:03:38;20.52;;;7.50;;
2023;SDS011;1016;48.770;9.154;2022-12-07T00:06:05;20.93;;;7.80;;
2023;SDS011;1016;48.770;9.154;2022-12-07T00:08:33;21.58;;;7.65;;
2023;SDS011;1016;48.770;9.154;2022-12-07T00:11:07;20.60;;;7.47;;
2023;SDS011;1016;48.770;9.154;2022-12-07T00:13:34;21.40;;;8.20;;
2023;SDS011;1016;48.770;9.154;2022-12-07T00:16:04;20.87;;;7.80;;
2023;SDS011;1016;48.770;9.154;2022-12-07T00:18:32;21.90;;;7.60;;
2023;SDS011;1016;48.770;9.154;2022-12-07T00:21:04;21.13;;;8.20;;
2023;SDS011;1016;48.770;9.154;2022-12-07T00:23:31;21.13;;;8.25;;
2023;SDS011;1016;48.770;9.154;2022-12-07T00:26:07;21.77;;;8.18;;
2023;SDS011;1016;48.770;9.154;2022-12-07T00:28:35;21.50;;;7.95;;
2023;SDS011;1016;48.770;9.154;2022-12-07T00:31:02;21.23;;;8.10;;
2023;SDS011;1016;48.770;9.154;2022-12-07T00:33:29;22.00;;;8.20;;
2023;SDS011;1016;48.770;9.154;2022-12-07T00:35:55;21.60;;;8.23;;
2023;SDS011;1016;48.770;9.154;2022-12-07T00:38:24;21.63;;;8.82;;
2023;SDS011;1016;48.770;9.154;2022-12-07T00:40:53;22.00;;;8.75;;
2023;SDS011;1016;48.770;9.154;2022-12-07T00:43:20;23.23;;;9.70;;
2023;SDS011;1016;48.770;9.154;2022-12-07T00:45:46;21.83;;;8.80;;
2023;SDS011;1016;48.770;9.154;2022-12-07T00:48:11;22.70;;;9.25;;
2023;SDS011;1016;48.770;9.154;2022-12-07T00:50:37;22.00;;;9.10;;
2023;SDS011;1016;48.770;9.154;2022-12-07T00:53:02;21.55;;;9.25;;
2023;SDS011;1016;48.770;9.154;2022-12-07T00:55:28;22.97;;;9.77;;
2023;SDS011;1016;48.770;9.154;2022-12-07T00:57:57;23.00;;;10.10;;
2023;SDS011;1016;48.770;9.154;2022-12-07T01:00:22;24.40;;;10.00;;
2023;SDS011;1016;48.770;9.154;2022-12-07T01:02:48;23.03;;;10.00;;
2023;SDS011;1016;48.770;9.154;2022-12-07T01:05:13;22.80;;;9.90;;
2023;SDS011;1016;48.770;9.154;2022-12-07T01:07:39;23.73;;;10.47;;
2023;SDS011;1016;48.770;9.154;2022-12-07T01:10:05;23.63;;;10.47;;
2023;SDS011;1016;48.770;9.154;2022-12-07T01:12:31;23.10;;;10.33;;
2023;SDS011;1016;48.770;9.154;2022-12-07T01:14:56;26.90;;;11.10;;
2023;SDS011;1016;48.770;9.154;2022-12-07T01:17:22;23.92;;;10.05;;
2023;SDS011;1016;48.770;9.154;2022-12-07T01:19:47;22.83;;;9.97;;
2023;SDS011;1016;48.770;9.154;2022-12-07T01:22:12;22.92;;;10.15;;
2023;SDS011;1016;48.770;9.154;2022-12-07T01:24:38;23.40;;;10.00;;
2023;SDS011;1016;48.770;9.154;2022-12-07T01:27:04;22.80;;;10.00;;
2023;SDS011;1016;48.770;9.154;2022-12-07T01:29:29;24.30;;;10.50;;
2023;SDS011;1016;48.770;9.154;2022-12-07T01:31:55;23.20;;;9.90;;
2023;SDS011;1016;48.770;9.154;2022-12-07T01:34:20;23.13;;;10.32;;
2023;SDS011;1016;48.770;9.154;2022-12-07T01:36:46;23.20;;;10.57;;
2023;SDS011;1016;48.770;9.154;2022-12-07T01:39:11;23.80;;;10.70;;
2023;SDS011;1016;48.770;9.154;2022-12-07T01:41:38;23.30;;;10.60;;
2023;SDS011;1016;48.770;9.154;2022-12-07T01:46:40;23.10;;;10.30;;
2023;SDS011;1016;48.770;9.154;2022-12-07T01:49:08;23.00;;;10.00;;
2023;SDS011;1016;48.770;9.154;2022-12-07T01:51:36;23.17;;;10.10;;
2023;SDS011;1016;48.770;9.154;2022-12-07T01:54:05;23.85;;;10.40;;
2023;SDS011;1016;48.770;9.154;2022-12-07T01:56:30;23.65;;;10.60;;
2023;SDS011;1016;48.770;9.154;2022-12-07T01:58:57;24.10;;;10.50;;
2023;SDS011;1016;48.770;9.154;2022-12-07T02:01:25;24.23;;;10.80;;
2023;SDS011;1016;48.770;9.154;2022-12-07T02:03:50;23.90;;;10.60;;
2023;SDS011;1016;48.770;9.154;2022-12-07T02:06:18;23.80;;;10.77;;
2023;SDS011;1016;48.770;9.154;2022-12-07T02:08:47;23.75;;;10.50;;
2023;SDS011;1016;48.770;9.154;2022-12-07T02:11:12;23.88;;;10.70;;
2023;SDS011;1016;48.770;9.154;2022-12-07T02:13:39;23.63;;;10.20;;
2023;SDS011;1016;48.770;9.154;2022-12-07T02:16:13;23.60;;;10.38;;
2023;SDS011;1016;48.770;9.154;2022-12-07T02:18:59;24.08;;;10.30;;
2023;SDS011;1016;48.770;9.154;2022-12-07T02:29:32;23.05;;;10.30;;
2023;SDS011;1016;48.770;9.154;2022-12-07T02:32:21;23.50;;;10.30;;
2023;SDS011;1016;48.770;9.154;2022-12-07T02:34:57;23.50;;;10.20;;
2023;SDS011;1016;48.770;9.154;2022-12-07T02:40:54;23.05;;;9.65;;
2023;SDS011;1016;48.770;9.154;2022-12-07T02:43:28;23.58;;;9.68;;
2023;SDS011;1016;48.770;9.154;2022-12-07T02:46:04;23.00;;;9.37;;
2023;SDS011;1016;48.770;9.154;2022-12-07T02:48:34;22.63;;;9.50;;
2023;SDS011;1016;48.770;9.154;2022-12-07T02:51:02;23.92;;;9.73;;
2023;SDS011;1016;48.770;9.154;2022-12-07T02:53:28;22.27;;;9.00;;
2023;SDS011;1016;48.770;9.154;2022-12-07T02:55:59;22.83;;;8.73;;
2023;SDS011;1016;48.770;9.154;2022-12-07T02:58:32;23.10;;;9.00;;
2023;SDS011;1016;48.770;9.154;2022-12-07T03:04:24;22.35;;;8.32;;
2023;SDS011;1016;48.770;9.154;2022-12-07T03:07:06;21.70;;;8.37;;
2023;SDS011;1016;48.770;9.154;2022-12-07T03:12:30;23.17;;;8.60;;
2023;SDS011;1016;48.770;9.154;2022-12-07T03:15:02;22.60;;;9.00;;
2023;SDS011;1016;48.770;9.154;2022-12-07T03:17:36;22.47;;;9.00;;
2023;SDS011;1016;48.770;9.154;2022-12-07T03:20:05;22.92;;;8.93;;
2023;SDS011;1016;48.770;9.154;2022-12-07T03:22:34;22.10;;;9.05;;
2023;SDS011;1016;48.770;9.154;2022-12-07T03:25:06;23.90;;;9.53;;
2023;SDS011;1016;48.770;9.154;2022-12-07T03:27:57;22.73;;;9.23;;
2023;SDS011;1016;48.770;9.154;2022-12-07T03:30:24;23.38;;;9.98;;
2023;SDS011;1016;48.770;9.154;2022-12-07T03:33:06;22.00;;;8.85;;
2023;SDS011;1016;48.770;9.154;2022-12-07T03:35:37;21.70;;;8.35;;
2023;SDS011;1016;48.770;9.154;2022-12-07T03:38:22;21.20;;;8.00;;
2023;SDS011;1016;48.770;9.154;2022-12-07T03:40:55;21.00;;;7.70;;
2023;SDS011;1016;48.770;9.154;2022-12-07T03:43:24;22.00;;;8.80;;
2023;SDS011;1016;48.770;9.154;2022-12-07T03:45:56;20.50;;;7.13;;
2023;SDS011;1016;48.770;9.154;2022-12-07T03:48:41;20.70;;;7.30;;
2023;SDS011;1016;48.770;9.154;2022-12-07T03:51:21;21.10;;;7.60;;
2023;SDS011;1016;48.770;9.154;2022-12-07T03:53:54;21.52;;;7.88;;
2023;SDS011;1016;48.770;9.154;2022-12-07T03:56:27;22.40;;;8.77;;
2023;SDS011;1016;48.770;9.154;2022-12-07T03:58:54;21.58;;;8.18;;
2023;SDS011;1016;48.770;9.154;2022-12-07T04:01:19;21.50;;;8.30;;
2023;SDS011;1016;48.770;9.154;2022-12-07T04:03:45;21.43;;;7.63;;
2023;SDS011;1016;48.770;9.154;2022-12-07T04:06:11;22.10;;;7.87;;
2023;SDS011;1016;48.770;9.154;2022-12-07T04:08:36;20.80;;;7.85;;
2023;SDS011;1016;48.770;9.154;2022-12-07T04:11:02;21.40;;;7.60;;
2023;SDS011;1016;48.770;9.154;2022-12-07T04:13:28;20.75;;;7.50;;
2023;SDS011;1016;48.770;9.154;2022-12-07T04:15:53;20.30;;;6.97;;
2023;SDS011;1016;48.770;9.154;2022-12-07T04:18:18;20.27;;;6.60;;
2023;SDS011;1016;48.770;9.154;2022-12-07T04:20:45;19.67;;;5.90;;
2023;SDS011;1016;48.770;9.154;2022-12-07T04:23:11;19.27;;;5.55;;
2023;SDS011;1016;48.770;9.154;2022-12-07T04:25:36;19.40;;;5.67;;
2023;SDS011;1016;48.770;9.154;2022-12-07T04:28:02;19.40;;;5.00;;
2023;SDS011;1016;48.770;9.154;2022-12-07T04:30:27;18.85;;;4.78;;
2023;SDS011;1016;48.770;9.154;2022-12-07T04:32:53;19.57;;;4.70;;
2023;SDS011;1016;48.770;9.154;2022-12-07T04:35:18;19.30;;;4.30;;
2023;SDS011;1016;48.770;9.154;2022-12-07T04:37:44;18.20;;;4.00;;
2023;SDS011;1016;48.770;9.154;2022-12-07T04:40:09;18.60;;;4.60;;
2023;SDS011;1016;48.770;9.154;2022-12-07T04:42:36;18.85;;;5.10;;
2023;SDS011;1016;48.770;9.154;2022-12-07T04:45:02;19.30;;;5.50;;
2023;SDS011;1016;48.770;9.154;2022-12-07T04:47:27;19.15;;;5.50;;
2023;SDS011;1016;48.770;9.154;2022-12-07T04:49:53;19.80;;;5.83;;
2023;SDS011;1016;48.770;9.154;2022-12-07T04:52:18;20.00;;;6.00;;
2023;SDS011;1016;48.770;9.154;2022-12-07T04:54:44;20.07;;;6.20;;
2023;SDS011;1016;48.770;9.154;2022-12-07T04:57:09;18.60;;;4.50;;
2023;SDS011;1016;48.770;9.154;2022-12-07T04:59:35;18.33;;;4.40;;
2023;SDS011;1016;48.770;9.154;2022-12-07T05:02:01;17.70;;;3.73;;
2023;SDS011;1016;48.770;9.154;2022-12-07T05:04:26;17.57;;;3.30;;
2023;SDS011;1016;48.770;9.154;2022-12-07T05:06:52;17.20;;;2.97;;
2023;SDS011;1016;48.770;9.154;2022-12-07T05:09:17;17.63;;;3.20;;
2023;SDS011;1016;48.770;9.154;2022-12-07T05:11:43;17.90;;;3.50;;
2023;SDS011;1016;48.770;9.154;2022-12-07T05:14:13;17.88;;;3.40;;
2023;SDS011;1016;48.770;9.154;2022-12-07T05:16:40;18.10;;;3.90;;
2023;SDS011;1016;48.770;9.154;2022-12-07T05:19:08;18.48;;;4.20;;
2023;SDS011;1016;48.770;9.154;2022-12-07T05:21:34;20.23;;;4.50;;
2023;SDS011;1016;48.770;9.154;2022-12-07T05:24:00;19.50;;;4.40;;
2023;SDS011;1016;48.770;9.154;2022-12-07T05:26:26;18.65;;;4.40;;
2023;SDS011;1016;48.770;9.154;2022-12-07T05:28:52;19.40;;;5.00;;
2023;SDS011;1016;48.770;9.154;2022-12-07T05:31:18;19.60;;;5.00;;
2023;SDS011;1016;48.770;9.154;2022-12-07T05:33:44;19.40;;;4.70;;
2023;SDS011;1016;48.770;9.154;2022-12-07T05:36:10;19.40;;;5.00;;
2023;SDS011;1016;48.770;9.154;2022-12-07T05:38:36;19.70;;;5.43;;
2023;SDS011;1016;48.770;9.154;2022-12-07T05:41:02;19.95;;;5.32;;
2023;SDS011;1016;48.770;9.154;2022-12-07T05:43:28;19.53;;;5.63;;
2023;SDS011;1016;48.770;9.154;2022-12-07T05:45:54;19.60;;;5.80;;
2023;SDS011;1016;48.770;9.154;2022-12-07T05:48:19;20.00;;;6.10;;
2023;SDS011;1016;48.770;9.154;2022-12-07T05:50:47;20.20;;;6.30;;
2023;SDS011;1016;48.770;9.154;2022-12-07T05:53:13;19.85;;;6.20;;
2023;SDS011;1016;48.770;9.154;2022-12-07T05:55:39;20.25;;;6.10;;
2023;SDS011;1016;48.770;9.154;2022-12-07T05:58:04;21.77;;;6.60;;
2023;SDS011;1016;48.770;9.154;2022-12-07T06:00:49;20.42;;;6.30;;
2023;SDS011;1016;48.770;9.154;2022-12-07T06:03:14;21.33;;;7.00;;
2023;SDS011;1016;48.770;9.154;2022-12-07T06:05:40;20.57;;;6.70;;
2023;SDS011;1016;48.770;9.154;2022-12-07T06:08:06;20.60;;;6.60;;
2023;SDS011;1016;48.770;9.154;2022-12-07T06:10:32;20.70;;;6.87;;
2023;SDS011;1016;48.770;9.154;2022-12-07T06:12:57;20.60;;;7.10;;
2023;SDS011;1016;48.770;9.154;2022-12-07T06:15:23;20.67;;;7.00;;
2023;SDS011;1016;48.770;9.154;2022-12-07T06:17:48;21.40;;;7.50;;
2023;SDS011;1016;48.770;9.154;2022-12-07T06:20:14;21.83;;;6.67;;
2023;SDS011;1016;48.770;9.154;2022-12-07T06:22:39;20.37;;;6.50;;
2023;SDS011;1016;48.770;9.154;2022-12-07T06:25:05;21.17;;;7.10;;
2023;SDS011;1016;48.770;9.154;2022-12-07T06:27:31;21.30;;;7.30;;
2023;SDS011;1016;48.770;9.154;2022-12-07T06:29:57;22.45;;;7.32;;
2023;SDS011;1016;48.770;9.154;2022-12-07T06:32:23;21.05;;;6.68;;
2023;SDS011;1016;48.770;9.154;2022-12-07T06:34:49;20.67;;;6.57;;
2023;SDS011;1016;48.770;9.154;2022-12-07T06:37:14;22.08;;;6.60;;
2023;SDS011;1016;48.770;9.154;2022-12-07T06:39:40;20.80;;;6.50;;
2023;SDS011;1016;48.770;9.154;2022-12-07T06:42:05;22.27;;;6.60;;
2023;SDS011;1016;48.770;9.154;2022-12-07T06:44:31;20.77;;;6.27;;
2023;SDS011;1016;48.770;9.154;2022-12-07T06:46:57;21.70;;;6.38;;
2023;SDS011;1016;48.770;9.154;2022-12-07T06:49:22;21.40;;;6.73;;
2023;SDS011;1016;48.770;9.154;2022-12-07T06:51:48;19.95;;;5.72;;
2023;SDS011;1016;48.770;9.154;2022-12-07T06:54:13;20.20;;;5.90;;
2023;SDS011;1016;48.770;9.154;2022-12-07T06:56:40;20.50;;;6.17;;
2023;SDS011;1016;48.770;9.154;2022-12-07T06:59:06;20.20;;;5.70;;
2023;SDS011;1016;48.770;9.154;2022-12-07T07:01:32;20.33;;;5.95;;
2023;SDS011;1016;48.770;9.154;2022-12-07T07:03:59;21.35;;;6.32;;
2023;SDS011;1016;48.770;9.154;2022-12-07T07:06:25;21.07;;;6.50;;
2023;SDS011;1016;48.770;9.154;2022-12-07T07:08:50;20.93;;;6.93;;
2023;SDS011;1016;48.770;9.154;2022-12-07T07:11:16;20.45;;;6.15;;
2023;SDS011;1016;48.770;9.154;2022-12-07T07:13:42;21.00;;;6.40;;
2023;SDS011;1016;48.770;9.154;2022-12-07T07:16:07;20.70;;;6.30;;
2023;SDS011;1016;48.770;9.154;2022-12-07T07:18:33;21.50;;;6.13;;
2023;SDS011;1016;48.770;9.154;2022-12-07T07:20:58;19.83;;;5.50;;
2023;SDS011;1016;48.770;9.154;2022-12-07T07:23:24;19.20;;;5.50;;
2023;SDS011;1016;48.770;9.154;2022-12-07T07:25:50;20.45;;;5.40;;
2023;SDS011;1016;48.770;9.154;2022-12-07T07:28:16;19.77;;;5.10;;
2023;SDS011;1016;48.770;9.154;2022-12-07T07:30:41;21.40;;;5.65;;
2023;SDS011;1016;48.770;9.154;2022-12-07T07:33:07;20.30;;;5.80;;
2023;SDS011;1016;48.770;9.154;2022-12-07T07:35:33;22.30;;;5.40;;
2023;SDS011;1016;48.770;9.154;2022-12-07T07:37:59;19.60;;;5.50;;
2023;SDS011;1016;48.770;9.154;2022-12-07T07:40:25;20.20;;;5.97;;
2023;SDS011;1016;48.770;9.154;2022-12-07T07:42:53;21.00;;;5.03;;
2023;SDS011;1016;48.770;9.154;2022-12-07T07:45:19;19.85;;;5.55;;
2023;SDS011;1016;48.770;9.154;2022-12-07T07:47:46;22.40;;;6.13;;
2023;SDS011;1016;48.770;9.154;2022-12-07T07:50:12;21.50;;;6.13;;
2023;SDS011;1016;48.770;9.154;2022-12-07T07:52:38;19.70;;;5.80;;
2023;SDS011;1016;48.770;9.154;2022-12-07T07:55:05;19.92;;;6.07;;
2023;SDS011;1016;48.770;9.154;2022-12-07T07:57:32;19.90;;;5.85;;
2023;SDS011;1016;48.770;9.154;2022-12-07T07:59:57;20.37;;;6.17;;
2023;SDS011;1016;48.770;9.154;2022-12-07T08:02:23;22.63;;;6.75;;
2023;SDS011;1016;48.770;9.154;2022-12-07T08:04:49;21.50;;;6.60;;
2023;SDS011;1016;48.770;9.154;2022-12-07T08:07:15;22.50;;;6.80;;
2023;SDS011;1016;48.770;9.154;2022-12-07T08:09:41;20.65;;;5.93;;
2023;SDS011;1016;48.770;9.154;2022-12-07T08:12:07;20.95;;;6.00;;
2023;SDS011;1016;48.770;9.154;2022-12-07T08:14:33;19.83;;;5.60;;
2023;SDS011;1016;48.770;9.154;2022-12-07T08:16:59;22.13;;;5.88;;
2023;SDS011;1016;48.770;9.154;2022-12-07T08:19:25;19.55;;;5.00;;
2023;SDS011;1016;48.770;9.154;2022-12-07T08:21:51;20.40;;;5.10;;
2023;SDS011;1016;48.770;9.154;2022-12-07T08:24:16;19.73;;;5.20;;
2023;SDS011;1016;48.770;9.154;2022-12-07T08:26:42;20.13;;;5.30;;
2023;SDS011;1016;48.770;9.154;2022-12-07T08:29:08;21.17;;;5.60;;
2023;SDS011;1016;48.770;9.154;2022-12-07T08:31:33;22.00;;;5.63;;
2023;SDS011;1016;48.770;9.154;2022-12-07T08:33:59;20.02;;;5.15;;
2023;SDS011;1016;48.770;9.154;2022-12-07T08:36:26;20.45;;;5.03;;
2023;SDS011;1016;48.770;9.154;2022-12-07T08:38:52;20.48;;;5.10;;
2023;SDS011;1016;48.770;9.154;2022-12-07T08:41:18;20.70;;;5.20;;
2023;SDS011;1016;48.770;9.154;2022-12-07T08:43:43;21.17;;;5.37;;
2023;SDS011;1016;48.770;9.154;2022-12-07T08:46:19;19.90;;;4.73;;
2023;SDS011;1016;48.770;9.154;2022-12-07T08:48:51;18.95;;;4.50;;
2023;SDS011;1016;48.770;9.154;2022-12-07T08:51:20;20.55;;;4.90;;
2023;SDS011;1016;48.770;9.154;2022-12-07T08:53:47;20.80;;;5.27;;
2023;SDS011;1016;48.770;9.154;2022-12-07T08:56:14;19.90;;;4.90;;
2023;SDS011;1016;48.770;9.154;2022-12-07T08:58:39;20.00;;;5.47;;
2023;SDS011;1016;48.770;9.154;2022-12-07T09:01:06;20.35;;;4.70;;
2023;SDS011;1016;48.770;9.154;2022-12-07T09:03:31;20.10;;;4.47;;
2023;SDS011;1016;48.770;9.154;2022-12-07T09:05:57;21.80;;;5.13;;
2023;SDS011;1016;48.770;9.154;2022-12-07T09:08:25;20.48;;;4.70;;
2023;SDS011;1016;48.770;9.154;2022-12-07T09:10:55;19.80;;;4.80;;
2023;SDS011;1016;48.770;9.154;2022-12-07T09:13:21;19.93;;;4.70;;
2023;SDS011;1016;48.770;9.154;2022-12-07T09:15:47;19.13;;;4.50;;
2023;SDS011;1016;48.770;9.154;2022-12-07T09:18:13;20.40;;;4.30;;
2023;SDS011;1016;48.770;9.154;2022-12-07T09:20:38;21.98;;;4.60;;
2023;SDS011;1016;48.770;9.154;2022-12-07T09:23:05;20.87;;;4.40;;
2023;SDS011;1016;48.770;9.154;2022-12-07T09:25:31;19.63;;;4.70;;
2023;SDS011;1016;48.770;9.154;2022-12-07T09:27:57;19.25;;;4.68;;
2023;SDS011;1016;48.770;9.154;2022-12-07T09:30:24;19.80;;;4.75;;
2023;SDS011;1016;48.770;9.154;2022-12-07T09:32:50;19.55;;;4.47;;
2023;SDS011;1016;48.770;9.154;2022-12-07T09:35:17;19.83;;;5.10;;
2023;SDS011;1016;48.770;9.154;2022-12-07T09:37:42;20.20;;;4.60;;
2023;SDS011;1016;48.770;9.154;2022-12-07T09:40:08;19.80;;;4.90;;
2023;SDS011;1016;48.770;9.154;2022-12-07T09:42:37;19.35;;;4.75;;
2023;SDS011;1016;48.770;9.154;2022-12-07T09:45:10;21.15;;;4.72;;
2023;SDS011;1016;48.770;9.154;2022-12-07T09:47:39;20.70;;;4.90;;
2023;SDS011;1016;48.770;9.154;2022-12-07T09:50:06;20.60;;;4.77;;
2023;SDS011;1016;48.770;9.154;2022-12-07T09:52:40;19.63;;;4.70;;
2023;SDS011;1016;48.770;9.154;2022-12-07T09:55:09;22.58;;;4.60;;
2023;SDS011;1016;48.770;9.154;2022-12-07T09:57:37;19.15;;;4.63;;
2023;SDS011;1016;48.770;9.154;2022-12-07T10:00:04;19.80;;;4.80;;
2023;SDS011;1016;48.770;9.154;2022-12-07T10:02:37;18.95;;;4.47;;
2023;SDS011;1016;48.770;9.154;2022-12-07T10:05:20;19.33;;;4.82;;
2023;SDS011;1016;48.770;9.154;2022-12-07T10:08:08;20.70;;;4.70;;
2023;SDS011;1016;48.770;9.154;2022-12-07T10:10:36;19.15;;;4.57;;
2023;SDS011;1016;48.770;9.154;2022-12-07T10:13:04;19.60;;;4.57;;
2023;SDS011;1016;48.770;9.154;2022-12-07T10:15:43;18.70;;;3.90;;
2023;SDS011;1016;48.770;9.154;2022-12-07T10:20:48;17.70;;;3.30;;
2023;SDS011;1016;48.770;9.154;2022-12-07T10:23:14;18.70;;;3.53;;
2023;SDS011;1016;48.770;9.154;2022-12-07T10:25:42;18.40;;;3.60;;
2023;SDS011;1016;48.770;9.154;2022-12-07T10:30:56;20.50;;;3.90;;
2023;SDS011;1016;48.770;9.154;2022-12-07T10:33:32;18.70;;;4.10;;
2023;SDS011;1016;48.770;9.154;2022-12-07T10:36:00;17.90;;;3.42;;
2023;SDS011;1016;48.770;9.154;2022-12-07T10:38:33;18.90;;;3.90;;
2023;SDS011;1016;48.770;9.154;2022-12-07T10:41:13;18.10;;;3.50;;
2023;SDS011;1016;48.770;9.154;2022-12-07T10:43:46;19.20;;;3.97;;
2023;SDS011;1016;48.770;9.154;2022-12-07T10:55:03;20.60;;;4.20;;
2023;SDS011;1016;48.770;9.154;2022-12-07T11:00:19;20.90;;;4.00;;
2023;SDS011;1016;48.770;9.154;2022-12-07T11:02:53;20.27;;;4.30;;
2023;SDS011;1016;48.770;9.154;2022-12-07T11:05:39;19.42;;;4.50;;
2023;SDS011;1016;48.770;9.154;2022-12-07T11:22:34;18.40;;;3.63;;
2023;SDS011;1016;48.770;9.154;2022-12-07T11:25:27;18.10;;;3.40;;
2023;SDS011;1016;48.770;9.154;2022-12-07T11:30:49;18.30;;;3.70;;
2023;SDS011;1016;48.770;9.154;2022-12-07T11:33:46;18.73;;;3.70;;
2023;SDS011;1016;48.770;9.154;2022-12-07T11:36:29;19.75;;;4.30;;
2023;SDS011;1016;48.770;9.154;2022-12-07T11:41:52;20.17;;;3.90;;
2023;SDS011;1016;48.770;9.154;2022-12-07T11:44:27;23.15;;;3.80;;
2023;SDS011;1016;48.770;9.154;2022-12-07T11:47:13;18.08;;;3.00;;
2023;SDS011;1016;48.770;9.154;2022-12-07T11:49:44;20.70;;;2.90;;
2023;SDS011;1016;48.770;9.154;2022-12-07T11:55:16;17.20;;;2.60;;
2023;SDS011;1016;48.770;9.154;2022-12-07T11:57:48;18.40;;;2.53;;
2023;SDS011;1016;48.770;9.154;2022-12-07T12:00:19;18.23;;;2.75;;
2023;SDS011;1016;48.770;9.154;2022-12-07T12:05:40;17.88;;;2.70;;
2023;SDS011;1016;48.770;9.154;2022-12-07T12:08:13;17.70;;;3.20;;
2023;SDS011;1016;48.770;9.154;2022-12-07T12:10:55;18.00;;;3.33;;
2023;SDS011;1016;48.770;9.154;2022-12-07T12:13:58;18.40;;;3.80;;
2023;SDS011;1016;48.770;9.154;2022-12-07T12:19:44;19.60;;;5.07;;
2023;SDS011;1016;48.770;9.154;2022-12-07T12:25:25;19.30;;;4.70;;
2023;SDS011;1016;48.770;9.154;2022-12-07T12:27:52;19.90;;;5.57;;
2023;SDS011;1016;48.770;9.154;2022-12-07T12:30:39;19.77;;;5.50;;
2023;SDS011;1016;48.770;9.154;2022-12-07T12:33:20;20.95;;;6.38;;
2023;SDS011;1016;48.770;9.154;2022-12-07T12:36:17;21.10;;;6.80;;
2023;SDS011;1016;48.770;9.154;2022-12-07T12:54:28;30.05;;;7.00;;
2023;SDS011;1016;48.770;9.154;2022-12-07T12:57:13;22.05;;;6.00;;
2023;SDS011;1016;48.770;9.154;2022-12-07T13:02:21;19.33;;;5.37;;
2023;SDS011;1016;48.770;9.154;2022-12-07T13:15:43;21.85;;;5.35;;
2023;SDS011;1016;48.770;9.154;2022-12-07T13:20:56;21.80;;;5.40;;
2023;SDS011;1016;48.770;9.154;2022-12-07T13:26:16;23.95;;;5.50;;
2023;SDS011;1016;48.770;9.154;2022-12-07T13:31:35;18.80;;;4.68;;
2023;SDS011;1016;48.770;9.154;2022-12-07T13:34:05;19.83;;;5.20;;
2023;SDS011;1016;48.770;9.154;2022-12-07T13:37:01;20.00;;;5.30;;
2023;SDS011;1016;48.770;9.154;2022-12-07T13:39:35;18.77;;;4.60;;
2023;SDS011;1016;48.770;9.154;2022-12-07T13:44:51;21.75;;;5.45;;
2023;SDS011;1016;48.770;9.154;2022-12-07T13:47:23;20.17;;;4.80;;
2023;SDS011;1016;48.770;9.154;2022-12-07T13:52:56;20.20;;;3.95;;
2023;SDS011;1016;48.770;9.154;2022-12-07T13:55:24;19.30;;;4.30;;
2023;SDS011;1016;48.770;9.154;2022-12-07T13:57:52;19.10;;;4.40;;
2023;SDS011;1016;48.770;9.154;2022-12-07T14:00:27;20.10;;;5.20;;
2023;SDS011;1016;48.770;9.154;2022-12-07T14:03:01;19.33;;;4.80;;
2023;SDS011;1016;48.770;9.154;2022-12-07T14:05:36;22.10;;;5.50;;
2023;SDS011;1016;48.770;9.154;2022-12-07T14:08:04;18.80;;;4.10;;
2023;SDS011;1016;48.770;9.154;2022-12-07T14:13:31;18.33;;;3.97;;
2023;SDS011;1016;48.770;9.154;2022-12-07T14:16:26;18.50;;;4.30;;
2023;SDS011;1016;48.770;9.154;2022-12-07T14:18:52;18.90;;;4.17;;
2023;SDS011;1016;48.770;9.154;2022-12-07T14:21:20;17.90;;;3.60;;
2023;SDS011;1016;48.770;9.154;2022-12-07T14:26:33;18.17;;;4.00;;
2023;SDS011;1016;48.770;9.154;2022-12-07T14:31:47;20.85;;;4.90;;
2023;SDS011;1016;48.770;9.154;2022-12-07T14:34:13;18.75;;;4.20;;
2023;SDS011;1016;48.770;9.154;2022-12-07T14:36:39;19.35;;;4.85;;
2023;SDS011;1016;48.770;9.154;2022-12-07T14:39:05;18.63;;;4.30;;
2023;SDS011;1016;48.770;9.154;2022-12-07T14:41:30;18.80;;;4.30;;
2023;SDS011;1016;48.770;9.154;2022-12-07T14:44:14;19.40;;;4.20;;
2023;SDS011;1016;48.770;9.154;2022-12-07T14:46:40;19.73;;;4.37;;
2023;SDS011;1016;48.770;9.154;2022-12-07T14:49:05;19.60;;;4.80;;
2023;SDS011;1016;48.770;9.154;2022-12-07T14:51:31;19.93;;;5.07;;
2023;SDS011;1016;48.770;9.154;2022-12-07T14:53:58;19.13;;;5.07;;
2023;SDS011;1016;48.770;9.154;2022-12-07T14:56:24;19.77;;;5.20;;
2023;SDS011;1016;48.770;9.154;2022-12-07T14:58:50;20.98;;;5.50;;
2023;SDS011;1016;48.770;9.154;2022-12-07T15:01:15;19.88;;;5.30;;
2023;SDS011;1016;48.770;9.154;2022-12-07T15:03:41;19.75;;;5.20;;
2023;SDS011;1016;48.770;9.154;2022-12-07T15:06:07;21.70;;;5.60;;
2023;SDS011;1016;48.770;9.154;2022-12-07T15:08:32;19.85;;;6.00;;
2023;SDS011;1016;48.770;9.154;2022-12-07T15:10:58;20.00;;;5.70;;
2023;SDS011;1016;48.770;9.154;2022-12-07T15:13:24;19.90;;;5.70;;
2023;SDS011;1016;48.770;9.154;2022-12-07T15:16:13;20.35;;;6.22;;
2023;SDS011;1016;48.770;9.154;2022-12-07T15:18:41;20.40;;;6.50;;
2023;SDS011;1016;48.770;9.154;2022-12-07T15:21:10;22.03;;;6.70;;
2023;SDS011;1016;48.770;9.154;2022-12-07T15:23:38;22.15;;;6.50;;
2023;SDS011;1016;48.770;9.154;2022-12-07T15:26:04;21.20;;;6.00;;
2023;SDS011;1016;48.770;9.154;2022-12-07T15:28:29;21.17;;;5.82;;
2023;SDS011;1016;48.770;9.154;2022-12-07T15:30:55;20.20;;;5.50;;
2023;SDS011;1016;48.770;9.154;2022-12-07T15:33:20;19.70;;;5.60;;
2023;SDS011;1016;48.770;9.154;2022-12-07T15:35:46;20.33;;;6.00;;
2023;SDS011;1016;48.770;9.154;2022-12-07T15:38:11;20.93;;;5.80;;
2023;SDS011;1016;48.770;9.154;2022-12-07T15:40:37;20.48;;;6.00;;
2023;SDS011;1016;48.770;9.154;2022-12-07T15:43:02;21.20;;;6.10;;
2023;SDS011;1016;48.770;9.154;2022-12-07T15:45:28;21.10;;;5.87;;
2023;SDS011;1016;48.770;9.154;2022-12-07T15:47:54;20.58;;;6.05;;
2023;SDS011;1016;48.770;9.154;2022-12-07T15:50:20;19.70;;;6.10;;
2023;SDS011;1016;48.770;9.154;2022-12-07T15:52:46;20.98;;;6.45;;
2023;SDS011;1016;48.770;9.154;2022-12-07T15:55:12;21.13;;;6.50;;
2023;SDS011;1016;48.770;9.154;2022-12-07T15:57:37;20.70;;;6.35;;
2023;SDS011;1016;48.770;9.154;2022-12-07T16:00:04;21.17;;;7.00;;
2023;SDS011;1016;48.770;9.154;2022-12-07T16:02:31;20.55;;;6.50;;
2023;SDS011;1016;48.770;9.154;2022-12-07T16:04:56;21.35;;;6.55;;
2023;SDS011;1016;48.770;9.154;2022-12-07T16:07:22;23.00;;;6.80;;
2023;SDS011;1016;48.770;9.154;2022-12-07T16:09:47;20.70;;;6.70;;
2023;SDS011;1016;48.770;9.154;2022-12-07T16:12:15;22.85;;;7.50;;
2023;SDS011;1016;48.770;9.154;2022-12-07T16:14:40;21.40;;;7.38;;
2023;SDS011;1016;48.770;9.154;2022-12-07T16:17:07;21.00;;;7.40;;
2023;SDS011;1016;48.770;9.154;2022-12-07T16:19:33;22.35;;;8.40;;
2023;SDS011;1016;48.770;9.154;2022-12-07T16:22:00;22.58;;;8.63;;
2023;SDS011;1016;48.770;9.154;2022-12-07T16:24:26;22.50;;;8.10;;
2023;SDS011;1016;48.770;9.154;2022-12-07T16:26:52;22.20;;;8.10;;
2023;SDS011;1016;48.770;9.154;2022-12-07T16:29:19;22.60;;;8.15;;
2023;SDS011;1016;48.770;9.154;2022-12-07T16:31:45;24.85;;;10.60;;
2023;SDS011;1016;48.770;9.154;2022-12-07T16:34:11;22.92;;;9.10;;
2023;SDS011;1016;48.770;9.154;2022-12-07T16:36:37;23.00;;;8.73;;
2023;SDS011;1016;48.770;9.154;2022-12-07T16:39:03;22.83;;;8.80;;
2023;SDS011;1016;48.770;9.154;2022-12-07T16:41:29;23.55;;;9.38;;
2023;SDS011;1016;48.770;9.154;2022-12-07T16:43:55;23.90;;;8.82;;
2023;SDS011;1016;48.770;9.154;2022-12-07T16:46:20;23.50;;;9.37;;
2023;SDS011;1016;48.770;9.154;2022-12-07T16:48:46;23.95;;;9.18;;
2023;SDS011;1016;48.770;9.154;2022-12-07T16:51:12;25.20;;;8.98;;
2023;SDS011;1016;48.770;9.154;2022-12-07T16:53:39;24.23;;;8.80;;
2023;SDS011;1016;48.770;9.154;2022-12-07T16:56:10;25.33;;;9.85;;
2023;SDS011;1016;48.770;9.154;2022-12-07T16:58:37;24.55;;;10.30;;
2023;SDS011;1016;48.770;9.154;2022-12-07T17:01:13;23.52;;;9.20;;
2023;SDS011;1016;48.770;9.154;2022-12-07T17:03:41;24.95;;;10.13;;
2023;SDS011;1016;48.770;9.154;2022-12-07T17:06:13;24.35;;;10.00;;
2023;SDS011;1016;48.770;9.154;2022-12-07T17:08:50;25.05;;;10.10;;
2023;SDS011;1016;48.770;9.154;2022-12-07T17:11:18;24.43;;;9.30;;